sensor_id;sensor_type;location;lat;lon;timestamp;P1;durP1;ratioP1;P2;durP2;ratioP2
18933;SDS011;9599;53.706;10.384;2023-04-15T00:01:09;9.27;;;6.30;;
18933;SDS011;9599;53.706;10.384;2023-04-15T00:03:39;9.90;;;6.60;;
18933;SDS011;9599;53.706;10.384;2023-04-15T00:06:08;10.47;;;6.80;;
18933;SDS011;9599;53.706;10.384;2023-04-15T00:08:35;9.63;;;6.37;;
18933;SDS011;9599;53.706;10.384;2023-04-15T00:11:03;10.13;;;5.97;;
18933;SDS011;9599;53.706;10.384;2023-04-15T00:13:32;9.83;;;6.60;;
18933;SDS011;9599;53.706;10.384;2023-04-15T00:16:00;9.90;;;6.63;;
18933;SDS011;9599;53.706;10.384;2023-04-15T00:18:28;8.10;;;5.63;;
18933;SDS011;9599;53.706;10.384;2023-04-15T00:20:58;9.50;;;6.50;;
18933;SDS011;9599;53.706;10.384;2023-04-15T00:23:26;10.37;;;6.33;;
18933;SDS011;9599;53.706;10.384;2023-04-15T00:25:54;10.10;;;6.63;;
18933;SDS011;9599;53.706;10.384;2023-04-15T00:28:22;8.73;;;5.70;;
18933;SDS011;9599;53.706;10.384;2023-04-15T00:30:50;9.70;;;6.60;;
18933;SDS011;9599;53.706;10.384;2023-04-15T00:33:18;11.40;;;6.93;;
18933;SDS011;9599;53.706;10.384;2023-04-15T00:35:46;9.70;;;6.30;;
18933;SDS011;9599;53.706;10.384;2023-04-15T00:38:15;11.73;;;6.60;;
18933;SDS011;9599;53.706;10.384;2023-04-15T00:40:43;10.33;;;6.50;;
18933;SDS011;9599;53.706;10.384;2023-04-15T00:43:12;10.40;;;6.40;;
18933;SDS011;9599;53.706;10.384;2023-04-15T00:45:40;11.07;;;6.90;;
18933;SDS011;9599;53.706;10.384;2023-04-15T00:48:08;10.90;;;7.00;;
18933;SDS011;9599;53.706;10.384;2023-04-15T00:50:37;11.57;;;7.33;;
18933;SDS011;9599;53.706;10.384;2023-04-15T00:53:05;10.47;;;6.53;;
18933;SDS011;9599;53.706;10.384;2023-04-15T00:55:34;9.80;;;6.53;;
18933;SDS011;9599;53.706;10.384;2023-04-15T00:58:03;10.77;;;6.33;;
18933;SDS011;9599;53.706;10.384;2023-04-15T01:00:31;9.73;;;6.20;;
18933;SDS011;9599;53.706;10.384;2023-04-15T01:02:59;12.53;;;7.73;;
18933;SDS011;9599;53.706;10.384;2023-04-15T01:05:28;12.00;;;7.27;;
18933;SDS011;9599;53.706;10.384;2023-04-15T01:07:57;12.37;;;7.70;;
18933;SDS011;9599;53.706;10.384;2023-04-15T01:10:24;11.37;;;7.13;;
18933;SDS011;9599;53.706;10.384;2023-04-15T01:12:54;14.77;;;8.17;;
18933;SDS011;9599;53.706;10.384;2023-04-15T01:15:24;13.60;;;7.57;;
18933;SDS011;9599;53.706;10.384;2023-04-15T01:17:52;15.37;;;9.10;;
18933;SDS011;9599;53.706;10.384;2023-04-15T01:20:20;15.13;;;8.33;;
18933;SDS011;9599;53.706;10.384;2023-04-15T01:22:49;16.93;;;9.77;;
18933;SDS011;9599;53.706;10.384;2023-04-15T01:25:18;14.93;;;8.50;;
18933;SDS011;9599;53.706;10.384;2023-04-15T01:27:53;18.10;;;9.77;;
18933;SDS011;9599;53.706;10.384;2023-04-15T01:30:21;17.20;;;9.80;;
18933;SDS011;9599;53.706;10.384;2023-04-15T01:32:49;18.83;;;10.00;;
18933;SDS011;9599;53.706;10.384;2023-04-15T01:35:18;17.70;;;9.47;;
18933;SDS011;9599;53.706;10.384;2023-04-15T01:37:46;19.87;;;10.73;;
18933;SDS011;9599;53.706;10.384;2023-04-15T01:40:15;17.93;;;9.97;;
18933;SDS011;9599;53.706;10.384;2023-04-15T01:42:45;19.60;;;10.27;;
18933;SDS011;9599;53.706;10.384;2023-04-15T01:45:14;22.30;;;10.77;;
18933;SDS011;9599;53.706;10.384;2023-04-15T01:47:41;16.60;;;9.10;;
18933;SDS011;9599;53.706;10.384;2023-04-15T01:50:09;20.33;;;10.63;;
18933;SDS011;9599;53.706;10.384;2023-04-15T01:52:38;19.83;;;10.63;;
18933;SDS011;9599;53.706;10.384;2023-04-15T01:55:06;24.40;;;11.23;;
18933;SDS011;9599;53.706;10.384;2023-04-15T01:57:37;22.77;;;11.40;;
18933;SDS011;9599;53.706;10.384;2023-04-15T02:00:07;25.47;;;11.53;;
18933;SDS011;9599;53.706;10.384;2023-04-15T02:02:41;27.90;;;12.40;;
18933;SDS011;9599;53.706;10.384;2023-04-15T02:05:10;29.13;;;12.77;;
18933;SDS011;9599;53.706;10.384;2023-04-15T02:07:38;27.37;;;12.10;;
18933;SDS011;9599;53.706;10.384;2023-04-15T02:10:07;23.57;;;11.57;;
18933;SDS011;9599;53.706;10.384;2023-04-15T02:12:35;26.90;;;11.80;;
18933;SDS011;9599;53.706;10.384;2023-04-15T02:15:05;27.43;;;12.87;;
18933;SDS011;9599;53.706;10.384;2023-04-15T02:17:36;28.03;;;12.00;;
18933;SDS011;9599;53.706;10.384;2023-04-15T02:20:06;28.07;;;13.13;;
18933;SDS011;9599;53.706;10.384;2023-04-15T02:22:35;33.73;;;13.50;;
18933;SDS011;9599;53.706;10.384;2023-04-15T02:25:04;33.63;;;13.10;;
18933;SDS011;9599;53.706;10.384;2023-04-15T02:27:33;33.77;;;13.60;;
18933;SDS011;9599;53.706;10.384;2023-04-15T02:30:02;41.53;;;14.37;;
18933;SDS011;9599;53.706;10.384;2023-04-15T02:32:34;34.77;;;13.70;;
18933;SDS011;9599;53.706;10.384;2023-04-15T02:35:03;30.07;;;12.93;;
18933;SDS011;9599;53.706;10.384;2023-04-15T02:37:32;36.80;;;14.00;;
18933;SDS011;9599;53.706;10.384;2023-04-15T02:40:08;39.33;;;14.33;;
18933;SDS011;9599;53.706;10.384;2023-04-15T02:42:37;37.37;;;14.80;;
18933;SDS011;9599;53.706;10.384;2023-04-15T02:45:08;35.47;;;13.20;;
18933;SDS011;9599;53.706;10.384;2023-04-15T02:47:39;40.93;;;14.37;;
18933;SDS011;9599;53.706;10.384;2023-04-15T02:50:10;38.47;;;14.60;;
18933;SDS011;9599;53.706;10.384;2023-04-15T02:52:41;43.93;;;15.87;;
18933;SDS011;9599;53.706;10.384;2023-04-15T02:55:10;44.63;;;15.47;;
18933;SDS011;9599;53.706;10.384;2023-04-15T02:57:38;42.10;;;15.20;;
18933;SDS011;9599;53.706;10.384;2023-04-15T03:00:09;45.60;;;15.83;;
18933;SDS011;9599;53.706;10.384;2023-04-15T03:02:41;42.83;;;15.37;;
18933;SDS011;9599;53.706;10.384;2023-04-15T03:05:11;46.17;;;15.87;;
18933;SDS011;9599;53.706;10.384;2023-04-15T03:07:46;56.67;;;17.17;;
18933;SDS011;9599;53.706;10.384;2023-04-15T03:10:15;55.57;;;16.33;;
18933;SDS011;9599;53.706;10.384;2023-04-15T03:12:44;57.00;;;17.40;;
18933;SDS011;9599;53.706;10.384;2023-04-15T03:15:16;52.40;;;16.37;;
18933;SDS011;9599;53.706;10.384;2023-04-15T03:17:50;47.00;;;14.50;;
18933;SDS011;9599;53.706;10.384;2023-04-15T03:20:18;53.47;;;16.70;;
18933;SDS011;9599;53.706;10.384;2023-04-15T03:22:47;52.93;;;16.80;;
18933;SDS011;9599;53.706;10.384;2023-04-15T03:25:17;51.50;;;16.90;;
18933;SDS011;9599;53.706;10.384;2023-04-15T03:27:45;37.93;;;14.47;;
18933;SDS011;9599;53.706;10.384;2023-04-15T03:30:13;53.53;;;17.80;;
18933;SDS011;9599;53.706;10.384;2023-04-15T03:32:41;53.93;;;17.43;;
18933;SDS011;9599;53.706;10.384;2023-04-15T03:35:10;49.97;;;17.57;;
18933;SDS011;9599;53.706;10.384;2023-04-15T03:37:38;50.10;;;18.93;;
18933;SDS011;9599;53.706;10.384;2023-04-15T03:40:07;51.17;;;18.83;;
18933;SDS011;9599;53.706;10.384;2023-04-15T03:42:35;49.73;;;18.63;;
18933;SDS011;9599;53.706;10.384;2023-04-15T03:45:03;55.43;;;19.80;;
18933;SDS011;9599;53.706;10.384;2023-04-15T03:47:32;51.67;;;18.33;;
18933;SDS011;9599;53.706;10.384;2023-04-15T03:50:00;62.53;;;19.80;;
18933;SDS011;9599;53.706;10.384;2023-04-15T03:52:30;68.70;;;19.33;;
18933;SDS011;9599;53.706;10.384;2023-04-15T03:54:58;41.17;;;15.10;;
18933;SDS011;9599;53.706;10.384;2023-04-15T03:57:25;62.73;;;20.43;;
18933;SDS011;9599;53.706;10.384;2023-04-15T03:59:54;72.50;;;21.13;;
18933;SDS011;9599;53.706;10.384;2023-04-15T04:02:21;68.63;;;20.70;;
18933;SDS011;9599;53.706;10.384;2023-04-15T04:04:50;87.70;;;22.17;;
18933;SDS011;9599;53.706;10.384;2023-04-15T04:07:18;53.23;;;18.93;;
18933;SDS011;9599;53.706;10.384;2023-04-15T04:09:47;48.57;;;16.07;;
18933;SDS011;9599;53.706;10.384;2023-04-15T04:12:15;48.57;;;14.93;;
18933;SDS011;9599;53.706;10.384;2023-04-15T04:14:43;84.80;;;25.63;;
18933;SDS011;9599;53.706;10.384;2023-04-15T04:17:10;72.23;;;22.60;;
18933;SDS011;9599;53.706;10.384;2023-04-15T04:19:39;81.97;;;24.80;;
18933;SDS011;9599;53.706;10.384;2023-04-15T04:22:06;82.43;;;25.60;;
18933;SDS011;9599;53.706;10.384;2023-04-15T04:24:34;80.70;;;25.90;;
18933;SDS011;9599;53.706;10.384;2023-04-15T04:27:04;82.37;;;27.17;;
18933;SDS011;9599;53.706;10.384;2023-04-15T04:29:31;69.30;;;25.10;;
18933;SDS011;9599;53.706;10.384;2023-04-15T04:31:59;73.20;;;26.47;;
18933;SDS011;9599;53.706;10.384;2023-04-15T04:34:27;73.13;;;26.87;;
18933;SDS011;9599;53.706;10.384;2023-04-15T04:36:55;56.93;;;21.77;;
18933;SDS011;9599;53.706;10.384;2023-04-15T04:39:23;52.07;;;20.70;;
18933;SDS011;9599;53.706;10.384;2023-04-15T04:41:51;65.10;;;26.50;;
18933;SDS011;9599;53.706;10.384;2023-04-15T04:44:21;60.37;;;25.03;;
18933;SDS011;9599;53.706;10.384;2023-04-15T04:46:49;61.40;;;26.27;;
18933;SDS011;9599;53.706;10.384;2023-04-15T04:49:17;70.73;;;28.90;;
18933;SDS011;9599;53.706;10.384;2023-04-15T04:51:44;73.63;;;27.70;;
18933;SDS011;9599;53.706;10.384;2023-04-15T04:54:13;64.90;;;26.37;;
18933;SDS011;9599;53.706;10.384;2023-04-15T04:56:41;72.23;;;29.17;;
18933;SDS011;9599;53.706;10.384;2023-04-15T04:59:09;74.53;;;29.03;;
18933;SDS011;9599;53.706;10.384;2023-04-15T05:01:38;56.20;;;23.30;;
18933;SDS011;9599;53.706;10.384;2023-04-15T05:04:06;64.57;;;26.20;;
18933;SDS011;9599;53.706;10.384;2023-04-15T05:06:34;73.40;;;30.27;;
18933;SDS011;9599;53.706;10.384;2023-04-15T05:09:02;73.57;;;29.03;;
18933;SDS011;9599;53.706;10.384;2023-04-15T05:11:30;75.33;;;28.60;;
18933;SDS011;9599;53.706;10.384;2023-04-15T05:13:58;72.73;;;29.27;;
18933;SDS011;9599;53.706;10.384;2023-04-15T05:16:27;84.17;;;30.27;;
18933;SDS011;9599;53.706;10.384;2023-04-15T05:18:56;69.23;;;26.53;;
18933;SDS011;9599;53.706;10.384;2023-04-15T05:21:25;78.53;;;27.20;;
18933;SDS011;9599;53.706;10.384;2023-04-15T05:23:53;70.20;;;27.27;;
18933;SDS011;9599;53.706;10.384;2023-04-15T05:26:21;67.47;;;27.57;;
18933;SDS011;9599;53.706;10.384;2023-04-15T05:28:49;56.63;;;21.33;;
18933;SDS011;9599;53.706;10.384;2023-04-15T05:31:17;89.67;;;29.93;;
18933;SDS011;9599;53.706;10.384;2023-04-15T05:33:45;87.07;;;30.37;;
18933;SDS011;9599;53.706;10.384;2023-04-15T05:36:14;90.80;;;28.97;;
18933;SDS011;9599;53.706;10.384;2023-04-15T05:38:42;98.30;;;30.67;;
18933;SDS011;9599;53.706;10.384;2023-04-15T05:41:10;101.53;;;31.73;;
18933;SDS011;9599;53.706;10.384;2023-04-15T05:43:43;93.20;;;30.07;;
18933;SDS011;9599;53.706;10.384;2023-04-15T05:46:11;71.23;;;23.93;;
18933;SDS011;9599;53.706;10.384;2023-04-15T05:48:39;96.17;;;29.97;;
18933;SDS011;9599;53.706;10.384;2023-04-15T05:51:07;91.27;;;28.67;;
18933;SDS011;9599;53.706;10.384;2023-04-15T05:53:37;93.07;;;30.73;;
18933;SDS011;9599;53.706;10.384;2023-04-15T05:56:06;103.97;;;31.20;;
18933;SDS011;9599;53.706;10.384;2023-04-15T05:58:34;105.80;;;31.77;;
18933;SDS011;9599;53.706;10.384;2023-04-15T06:01:02;110.17;;;34.03;;
18933;SDS011;9599;53.706;10.384;2023-04-15T06:03:30;52.53;;;20.33;;
18933;SDS011;9599;53.706;10.384;2023-04-15T06:05:58;108.43;;;32.40;;
18933;SDS011;9599;53.706;10.384;2023-04-15T06:08:27;93.43;;;30.67;;
18933;SDS011;9599;53.706;10.384;2023-04-15T06:10:59;92.23;;;30.83;;
18933;SDS011;9599;53.706;10.384;2023-04-15T06:13:27;79.63;;;29.07;;
18933;SDS011;9599;53.706;10.384;2023-04-15T06:15:55;74.93;;;29.23;;
18933;SDS011;9599;53.706;10.384;2023-04-15T06:18:23;86.63;;;31.47;;
18933;SDS011;9599;53.706;10.384;2023-04-15T06:20:51;82.70;;;33.10;;
18933;SDS011;9599;53.706;10.384;2023-04-15T06:23:19;70.50;;;28.70;;
18933;SDS011;9599;53.706;10.384;2023-04-15T06:25:47;92.50;;;33.63;;
18933;SDS011;9599;53.706;10.384;2023-04-15T06:28:16;45.73;;;19.57;;
18933;SDS011;9599;53.706;10.384;2023-04-15T06:30:44;50.67;;;22.37;;
18933;SDS011;9599;53.706;10.384;2023-04-15T06:33:12;76.07;;;31.83;;
18933;SDS011;9599;53.706;10.384;2023-04-15T06:35:40;75.40;;;30.20;;
18933;SDS011;9599;53.706;10.384;2023-04-15T06:38:08;84.90;;;33.53;;
18933;SDS011;9599;53.706;10.384;2023-04-15T06:40:36;87.77;;;33.97;;
18933;SDS011;9599;53.706;10.384;2023-04-15T06:43:04;87.47;;;32.50;;
18933;SDS011;9599;53.706;10.384;2023-04-15T06:45:34;86.27;;;34.80;;
18933;SDS011;9599;53.706;10.384;2023-04-15T06:48:02;75.33;;;31.00;;
18933;SDS011;9599;53.706;10.384;2023-04-15T06:50:31;70.83;;;26.87;;
18933;SDS011;9599;53.706;10.384;2023-04-15T06:52:59;71.63;;;30.47;;
18933;SDS011;9599;53.706;10.384;2023-04-15T06:55:27;93.73;;;34.77;;
18933;SDS011;9599;53.706;10.384;2023-04-15T06:57:55;88.80;;;32.88;;
18933;SDS011;9599;53.706;10.384;2023-04-15T07:00:23;97.07;;;36.07;;
18933;SDS011;9599;53.706;10.384;2023-04-15T07:02:53;112.57;;;37.67;;
18933;SDS011;9599;53.706;10.384;2023-04-15T07:05:22;99.33;;;36.40;;
18933;SDS011;9599;53.706;10.384;2023-04-15T07:07:50;104.00;;;35.70;;
18933;SDS011;9599;53.706;10.384;2023-04-15T07:10:18;75.47;;;30.80;;
18933;SDS011;9599;53.706;10.384;2023-04-15T07:12:46;98.17;;;34.60;;
18933;SDS011;9599;53.706;10.384;2023-04-15T07:15:17;79.93;;;30.33;;
18933;SDS011;9599;53.706;10.384;2023-04-15T07:17:45;58.23;;;23.73;;
18933;SDS011;9599;53.706;10.384;2023-04-15T07:20:14;74.30;;;28.50;;
18933;SDS011;9599;53.706;10.384;2023-04-15T07:22:43;83.50;;;32.17;;
18933;SDS011;9599;53.706;10.384;2023-04-15T07:25:11;97.20;;;35.57;;
18933;SDS011;9599;53.706;10.384;2023-04-15T07:27:39;94.03;;;35.30;;
18933;SDS011;9599;53.706;10.384;2023-04-15T07:30:08;102.70;;;36.17;;
18933;SDS011;9599;53.706;10.384;2023-04-15T07:32:36;98.07;;;36.60;;
18933;SDS011;9599;53.706;10.384;2023-04-15T07:35:04;98.43;;;34.83;;
18933;SDS011;9599;53.706;10.384;2023-04-15T07:37:34;102.00;;;37.00;;
18933;SDS011;9599;53.706;10.384;2023-04-15T07:40:02;103.70;;;36.77;;
18933;SDS011;9599;53.706;10.384;2023-04-15T07:42:32;92.63;;;34.70;;
18933;SDS011;9599;53.706;10.384;2023-04-15T07:45:00;88.70;;;31.97;;
18933;SDS011;9599;53.706;10.384;2023-04-15T07:47:28;104.43;;;35.63;;
18933;SDS011;9599;53.706;10.384;2023-04-15T07:49:56;92.43;;;35.20;;
18933;SDS011;9599;53.706;10.384;2023-04-15T07:52:24;105.70;;;37.20;;
18933;SDS011;9599;53.706;10.384;2023-04-15T07:54:53;111.03;;;37.67;;
18933;SDS011;9599;53.706;10.384;2023-04-15T07:57:21;96.47;;;35.97;;
18933;SDS011;9599;53.706;10.384;2023-04-15T07:59:49;94.07;;;35.43;;
18933;SDS011;9599;53.706;10.384;2023-04-15T08:02:17;88.40;;;33.33;;
18933;SDS011;9599;53.706;10.384;2023-04-15T08:04:45;89.80;;;33.67;;
18933;SDS011;9599;53.706;10.384;2023-04-15T08:07:14;87.53;;;34.57;;
18933;SDS011;9599;53.706;10.384;2023-04-15T08:09:42;87.20;;;31.33;;
18933;SDS011;9599;53.706;10.384;2023-04-15T08:12:11;69.47;;;26.97;;
18933;SDS011;9599;53.706;10.384;2023-04-15T08:14:40;54.43;;;23.63;;
18933;SDS011;9599;53.706;10.384;2023-04-15T08:17:08;59.90;;;24.73;;
18933;SDS011;9599;53.706;10.384;2023-04-15T08:19:35;81.30;;;32.20;;
18933;SDS011;9599;53.706;10.384;2023-04-15T08:22:03;53.00;;;23.93;;
18933;SDS011;9599;53.706;10.384;2023-04-15T08:24:36;66.47;;;30.87;;
18933;SDS011;9599;53.706;10.384;2023-04-15T08:27:04;63.70;;;28.37;;
18933;SDS011;9599;53.706;10.384;2023-04-15T08:29:34;58.73;;;27.67;;
18933;SDS011;9599;53.706;10.384;2023-04-15T08:32:02;70.27;;;29.23;;
18933;SDS011;9599;53.706;10.384;2023-04-15T08:34:31;66.50;;;31.07;;
18933;SDS011;9599;53.706;10.384;2023-04-15T08:36:59;59.60;;;26.30;;
18933;SDS011;9599;53.706;10.384;2023-04-15T08:39:27;58.43;;;26.80;;
18933;SDS011;9599;53.706;10.384;2023-04-15T08:41:57;57.47;;;26.20;;
18933;SDS011;9599;53.706;10.384;2023-04-15T08:44:28;61.30;;;27.80;;
18933;SDS011;9599;53.706;10.384;2023-04-15T08:47:00;55.30;;;25.43;;
18933;SDS011;9599;53.706;10.384;2023-04-15T08:49:31;56.10;;;26.03;;
18933;SDS011;9599;53.706;10.384;2023-04-15T08:51:59;56.67;;;26.37;;
18933;SDS011;9599;53.706;10.384;2023-04-15T08:54:28;56.70;;;27.30;;
18933;SDS011;9599;53.706;10.384;2023-04-15T08:56:56;57.83;;;27.50;;
18933;SDS011;9599;53.706;10.384;2023-04-15T08:59:24;47.37;;;21.07;;
18933;SDS011;9599;53.706;10.384;2023-04-15T09:01:52;55.87;;;25.93;;
18933;SDS011;9599;53.706;10.384;2023-04-15T09:04:23;44.87;;;22.23;;
18933;SDS011;9599;53.706;10.384;2023-04-15T09:06:51;54.73;;;26.93;;
18933;SDS011;9599;53.706;10.384;2023-04-15T09:09:19;55.00;;;26.40;;
18933;SDS011;9599;53.706;10.384;2023-04-15T09:11:47;49.60;;;25.43;;
18933;SDS011;9599;53.706;10.384;2023-04-15T09:14:16;51.50;;;24.23;;
18933;SDS011;9599;53.706;10.384;2023-04-15T09:16:57;52.00;;;25.70;;
18933;SDS011;9599;53.706;10.384;2023-04-15T09:19:28;41.97;;;20.90;;
18933;SDS011;9599;53.706;10.384;2023-04-15T09:21:56;50.60;;;26.30;;
18933;SDS011;9599;53.706;10.384;2023-04-15T09:24:32;45.20;;;24.50;;
18933;SDS011;9599;53.706;10.384;2023-04-15T09:27:03;51.33;;;25.53;;
18933;SDS011;9599;53.706;10.384;2023-04-15T09:29:32;40.03;;;22.90;;
18933;SDS011;9599;53.706;10.384;2023-04-15T09:32:10;39.93;;;21.30;;
18933;SDS011;9599;53.706;10.384;2023-04-15T09:34:40;39.43;;;22.97;;
18933;SDS011;9599;53.706;10.384;2023-04-15T09:37:08;37.13;;;21.00;;
18933;SDS011;9599;53.706;10.384;2023-04-15T09:39:56;37.70;;;21.60;;
18933;SDS011;9599;53.706;10.384;2023-04-15T09:42:24;35.40;;;21.50;;
18933;SDS011;9599;53.706;10.384;2023-04-15T09:44:53;35.30;;;22.10;;
18933;SDS011;9599;53.706;10.384;2023-04-15T09:47:27;32.57;;;20.63;;
18933;SDS011;9599;53.706;10.384;2023-04-15T09:49:59;38.50;;;22.50;;
18933;SDS011;9599;53.706;10.384;2023-04-15T09:52:28;39.20;;;22.20;;
18933;SDS011;9599;53.706;10.384;2023-04-15T09:54:57;33.13;;;21.13;;
18933;SDS011;9599;53.706;10.384;2023-04-15T09:57:32;34.57;;;19.97;;
18933;SDS011;9599;53.706;10.384;2023-04-15T10:00:02;31.33;;;19.97;;
18933;SDS011;9599;53.706;10.384;2023-04-15T10:02:31;34.97;;;21.30;;
18933;SDS011;9599;53.706;10.384;2023-04-15T10:05:02;32.77;;;19.57;;
18933;SDS011;9599;53.706;10.384;2023-04-15T10:07:34;27.63;;;17.60;;
18933;SDS011;9599;53.706;10.384;2023-04-15T10:10:02;27.03;;;19.03;;
18933;SDS011;9599;53.706;10.384;2023-04-15T10:12:31;28.13;;;18.77;;
18933;SDS011;9599;53.706;10.384;2023-04-15T10:15:01;27.80;;;18.10;;
18933;SDS011;9599;53.706;10.384;2023-04-15T10:17:31;26.20;;;16.97;;
18933;SDS011;9599;53.706;10.384;2023-04-15T10:20:02;23.03;;;14.93;;
18933;SDS011;9599;53.706;10.384;2023-04-15T10:22:31;23.37;;;15.13;;
18933;SDS011;9599;53.706;10.384;2023-04-15T10:24:59;28.57;;;18.57;;
18933;SDS011;9599;53.706;10.384;2023-04-15T10:27:29;18.87;;;12.13;;
18933;SDS011;9599;53.706;10.384;2023-04-15T10:29:58;24.97;;;17.80;;
18933;SDS011;9599;53.706;10.384;2023-04-15T10:32:28;21.47;;;15.20;;
18933;SDS011;9599;53.706;10.384;2023-04-15T10:34:56;26.50;;;18.23;;
18933;SDS011;9599;53.706;10.384;2023-04-15T10:37:33;25.87;;;19.23;;
18933;SDS011;9599;53.706;10.384;2023-04-15T10:42:54;21.00;;;14.43;;
18933;SDS011;9599;53.706;10.384;2023-04-15T10:45:23;27.37;;;19.17;;
18933;SDS011;9599;53.706;10.384;2023-04-15T10:47:55;24.83;;;18.17;;
18933;SDS011;9599;53.706;10.384;2023-04-15T10:50:27;25.77;;;19.00;;
18933;SDS011;9599;53.706;10.384;2023-04-15T10:53:00;27.73;;;19.90;;
18933;SDS011;9599;53.706;10.384;2023-04-15T10:55:30;26.50;;;19.43;;
18933;SDS011;9599;53.706;10.384;2023-04-15T10:57:59;25.40;;;17.77;;
18933;SDS011;9599;53.706;10.384;2023-04-15T11:00:29;23.97;;;17.87;;
18933;SDS011;9599;53.706;10.384;2023-04-15T11:02:58;26.40;;;18.17;;
18933;SDS011;9599;53.706;10.384;2023-04-15T11:05:48;24.43;;;17.50;;
18933;SDS011;9599;53.706;10.384;2023-04-15T11:08:19;20.77;;;14.40;;
18933;SDS011;9599;53.706;10.384;2023-04-15T11:11:08;20.50;;;14.73;;
18933;SDS011;9599;53.706;10.384;2023-04-15T11:13:36;20.37;;;15.80;;
18933;SDS011;9599;53.706;10.384;2023-04-15T11:16:15;21.53;;;16.53;;
18933;SDS011;9599;53.706;10.384;2023-04-15T11:18:52;17.83;;;12.13;;
18933;SDS011;9599;53.706;10.384;2023-04-15T11:21:23;27.60;;;18.30;;
18933;SDS011;9599;53.706;10.384;2023-04-15T11:23:53;23.17;;;17.20;;
18933;SDS011;9599;53.706;10.384;2023-04-15T11:26:24;22.57;;;15.37;;
18933;SDS011;9599;53.706;10.384;2023-04-15T11:28:53;15.27;;;10.97;;
18933;SDS011;9599;53.706;10.384;2023-04-15T11:31:21;22.97;;;16.17;;
18933;SDS011;9599;53.706;10.384;2023-04-15T11:33:53;17.53;;;14.07;;
18933;SDS011;9599;53.706;10.384;2023-04-15T11:36:25;22.37;;;16.07;;
18933;SDS011;9599;53.706;10.384;2023-04-15T11:38:54;20.27;;;14.63;;
18933;SDS011;9599;53.706;10.384;2023-04-15T11:41:25;24.37;;;17.03;;
18933;SDS011;9599;53.706;10.384;2023-04-15T11:43:53;26.50;;;18.60;;
18933;SDS011;9599;53.706;10.384;2023-04-15T11:46:27;24.37;;;18.10;;
18933;SDS011;9599;53.706;10.384;2023-04-15T11:48:55;27.67;;;18.93;;
18933;SDS011;9599;53.706;10.384;2023-04-15T11:51:23;24.40;;;16.70;;
18933;SDS011;9599;53.706;10.384;2023-04-15T11:53:51;26.03;;;17.60;;
18933;SDS011;9599;53.706;10.384;2023-04-15T11:56:20;19.67;;;13.37;;
18933;SDS011;9599;53.706;10.384;2023-04-15T11:58:52;24.97;;;17.73;;
18933;SDS011;9599;53.706;10.384;2023-04-15T12:01:29;26.50;;;17.20;;
18933;SDS011;9599;53.706;10.384;2023-04-15T12:03:57;32.97;;;20.47;;
18933;SDS011;9599;53.706;10.384;2023-04-15T12:06:30;26.80;;;18.77;;
18933;SDS011;9599;53.706;10.384;2023-04-15T12:09:06;25.07;;;16.00;;
18933;SDS011;9599;53.706;10.384;2023-04-15T12:11:39;28.43;;;20.80;;
18933;SDS011;9599;53.706;10.384;2023-04-15T12:14:11;27.63;;;18.43;;
18933;SDS011;9599;53.706;10.384;2023-04-15T12:16:43;30.80;;;20.70;;
18933;SDS011;9599;53.706;10.384;2023-04-15T12:19:34;33.10;;;21.23;;
18933;SDS011;9599;53.706;10.384;2023-04-15T12:22:03;28.43;;;21.00;;
18933;SDS011;9599;53.706;10.384;2023-04-15T12:24:32;22.53;;;14.83;;
18933;SDS011;9599;53.706;10.384;2023-04-15T12:27:02;31.70;;;20.57;;
18933;SDS011;9599;53.706;10.384;2023-04-15T12:29:33;28.13;;;19.37;;
18933;SDS011;9599;53.706;10.384;2023-04-15T12:32:05;26.77;;;20.20;;
18933;SDS011;9599;53.706;10.384;2023-04-15T12:34:35;24.70;;;15.10;;
18933;SDS011;9599;53.706;10.384;2023-04-15T12:37:04;22.47;;;14.87;;
18933;SDS011;9599;53.706;10.384;2023-04-15T12:39:35;26.13;;;17.57;;
18933;SDS011;9599;53.706;10.384;2023-04-15T12:42:04;25.37;;;18.40;;
18933;SDS011;9599;53.706;10.384;2023-04-15T12:44:37;29.90;;;19.80;;
18933;SDS011;9599;53.706;10.384;2023-04-15T12:47:06;27.70;;;19.10;;
18933;SDS011;9599;53.706;10.384;2023-04-15T12:49:34;29.40;;;20.90;;
18933;SDS011;9599;53.706;10.384;2023-04-15T12:52:03;26.47;;;18.83;;
18933;SDS011;9599;53.706;10.384;2023-04-15T12:54:31;24.50;;;16.80;;
18933;SDS011;9599;53.706;10.384;2023-04-15T12:56:59;25.47;;;16.17;;
18933;SDS011;9599;53.706;10.384;2023-04-15T12:59:32;29.20;;;18.43;;
18933;SDS011;9599;53.706;10.384;2023-04-15T13:02:02;25.10;;;19.10;;
18933;SDS011;9599;53.706;10.384;2023-04-15T13:04:30;26.50;;;19.10;;
18933;SDS011;9599;53.706;10.384;2023-04-15T13:06:58;20.30;;;13.73;;
18933;SDS011;9599;53.706;10.384;2023-04-15T13:09:26;23.03;;;17.50;;
18933;SDS011;9599;53.706;10.384;2023-04-15T13:11:54;21.47;;;16.30;;
18933;SDS011;9599;53.706;10.384;2023-04-15T13:14:22;21.43;;;15.80;;
18933;SDS011;9599;53.706;10.384;2023-04-15T13:16:50;22.70;;;16.70;;
18933;SDS011;9599;53.706;10.384;2023-04-15T13:19:20;18.87;;;15.00;;
18933;SDS011;9599;53.706;10.384;2023-04-15T13:21:48;16.27;;;11.00;;
18933;SDS011;9599;53.706;10.384;2023-04-15T13:24:16;20.33;;;13.20;;
18933;SDS011;9599;53.706;10.384;2023-04-15T13:26:44;17.30;;;13.47;;
18933;SDS011;9599;53.706;10.384;2023-04-15T13:29:15;21.73;;;14.90;;
18933;SDS011;9599;53.706;10.384;2023-04-15T13:31:42;19.47;;;14.43;;
18933;SDS011;9599;53.706;10.384;2023-04-15T13:34:10;17.27;;;13.30;;
18933;SDS011;9599;53.706;10.384;2023-04-15T13:36:40;17.37;;;12.03;;
18933;SDS011;9599;53.706;10.384;2023-04-15T13:39:08;16.73;;;12.73;;
18933;SDS011;9599;53.706;10.384;2023-04-15T13:41:35;23.20;;;14.63;;
18933;SDS011;9599;53.706;10.384;2023-04-15T13:44:03;17.87;;;12.23;;
18933;SDS011;9599;53.706;10.384;2023-04-15T13:46:32;15.67;;;11.83;;
18933;SDS011;9599;53.706;10.384;2023-04-15T13:49:00;20.80;;;14.67;;
18933;SDS011;9599;53.706;10.384;2023-04-15T13:51:28;16.17;;;11.27;;
18933;SDS011;9599;53.706;10.384;2023-04-15T13:53:58;17.17;;;11.30;;
18933;SDS011;9599;53.706;10.384;2023-04-15T13:56:26;14.60;;;10.70;;
18933;SDS011;9599;53.706;10.384;2023-04-15T13:58:57;22.13;;;15.33;;
18933;SDS011;9599;53.706;10.384;2023-04-15T14:01:27;20.77;;;14.30;;
18933;SDS011;9599;53.706;10.384;2023-04-15T14:03:55;17.53;;;12.93;;
18933;SDS011;9599;53.706;10.384;2023-04-15T14:06:23;20.33;;;14.07;;
18933;SDS011;9599;53.706;10.384;2023-04-15T14:08:52;14.80;;;11.93;;
18933;SDS011;9599;53.706;10.384;2023-04-15T14:11:22;17.80;;;11.33;;
18933;SDS011;9599;53.706;10.384;2023-04-15T14:13:50;18.03;;;14.17;;
18933;SDS011;9599;53.706;10.384;2023-04-15T14:16:18;20.57;;;14.73;;
18933;SDS011;9599;53.706;10.384;2023-04-15T14:18:46;19.17;;;13.20;;
18933;SDS011;9599;53.706;10.384;2023-04-15T14:21:14;19.30;;;15.90;;
18933;SDS011;9599;53.706;10.384;2023-04-15T14:23:42;18.53;;;13.30;;
18933;SDS011;9599;53.706;10.384;2023-04-15T14:26:10;19.27;;;13.73;;
18933;SDS011;9599;53.706;10.384;2023-04-15T14:28:40;19.70;;;12.70;;
18933;SDS011;9599;53.706;10.384;2023-04-15T14:31:10;22.03;;;15.97;;
18933;SDS011;9599;53.706;10.384;2023-04-15T14:33:38;19.50;;;14.57;;
18933;SDS011;9599;53.706;10.384;2023-04-15T14:36:06;21.73;;;16.80;;
18933;SDS011;9599;53.706;10.384;2023-04-15T14:38:35;19.23;;;15.10;;